sensor_id;sensor_type;location;lat;lon;timestamp;P1;durP1;ratioP1;P2;durP2;ratioP2
62258;SDS011;48241;48.824;10.102;2022-07-29T00:00:37;9.38;;;6.43;;
62258;SDS011;48241;48.824;10.102;2022-07-29T00:03:03;6.40;;;5.80;;
62258;SDS011;48241;48.824;10.102;2022-07-29T00:05:28;7.05;;;6.05;;
62258;SDS011;48241;48.824;10.102;2022-07-29T00:07:54;6.53;;;5.82;;
62258;SDS011;48241;48.824;10.102;2022-07-29T00:10:20;7.03;;;6.30;;
62258;SDS011;48241;48.824;10.102;2022-07-29T00:12:46;6.82;;;6.22;;
62258;SDS011;48241;48.824;10.102;2022-07-29T00:15:11;7.22;;;5.40;;
62258;SDS011;48241;48.824;10.102;2022-07-29T00:17:38;7.07;;;5.13;;
62258;SDS011;48241;48.824;10.102;2022-07-29T00:20:03;7.32;;;5.57;;
62258;SDS011;48241;48.824;10.102;2022-07-29T00:22:29;5.65;;;5.05;;
62258;SDS011;48241;48.824;10.102;2022-07-29T00:24:55;6.85;;;5.45;;
62258;SDS011;48241;48.824;10.102;2022-07-29T00:27:21;8.45;;;5.13;;
62258;SDS011;48241;48.824;10.102;2022-07-29T00:29:47;5.80;;;5.20;;
62258;SDS011;48241;48.824;10.102;2022-07-29T00:32:13;5.20;;;4.68;;
62258;SDS011;48241;48.824;10.102;2022-07-29T00:34:39;5.30;;;4.43;;
62258;SDS011;48241;48.824;10.102;2022-07-29T00:37:23;5.40;;;3.65;;
62258;SDS011;48241;48.824;10.102;2022-07-29T00:39:49;5.47;;;4.38;;
62258;SDS011;48241;48.824;10.102;2022-07-29T00:42:15;5.45;;;4.38;;
62258;SDS011;48241;48.824;10.102;2022-07-29T00:44:42;4.70;;;4.30;;
62258;SDS011;48241;48.824;10.102;2022-07-29T00:47:09;4.65;;;4.25;;
62258;SDS011;48241;48.824;10.102;2022-07-29T00:49:35;4.80;;;4.25;;
62258;SDS011;48241;48.824;10.102;2022-07-29T00:52:03;5.55;;;4.30;;
62258;SDS011;48241;48.824;10.102;2022-07-29T00:54:30;3.72;;;3.35;;
62258;SDS011;48241;48.824;10.102;2022-07-29T00:56:59;4.28;;;3.88;;
62258;SDS011;48241;48.824;10.102;2022-07-29T00:59:28;5.78;;;3.53;;
62258;SDS011;48241;48.824;10.102;2022-07-29T01:01:54;4.30;;;3.55;;
62258;SDS011;48241;48.824;10.102;2022-07-29T01:04:20;7.80;;;3.33;;
62258;SDS011;48241;48.824;10.102;2022-07-29T01:06:47;3.70;;;3.35;;
62258;SDS011;48241;48.824;10.102;2022-07-29T01:09:14;3.83;;;3.42;;
62258;SDS011;48241;48.824;10.102;2022-07-29T01:11:40;4.20;;;3.55;;
62258;SDS011;48241;48.824;10.102;2022-07-29T01:14:07;3.58;;;3.22;;
62258;SDS011;48241;48.824;10.102;2022-07-29T01:16:45;3.17;;;2.88;;
62258;SDS011;48241;48.824;10.102;2022-07-29T01:22:18;4.70;;;3.50;;
62258;SDS011;48241;48.824;10.102;2022-07-29T01:30:06;5.18;;;3.08;;
62258;SDS011;48241;48.824;10.102;2022-07-29T01:32:33;3.50;;;3.20;;
62258;SDS011;48241;48.824;10.102;2022-07-29T01:35:14;4.00;;;3.30;;
62258;SDS011;48241;48.824;10.102;2022-07-29T01:37:57;5.40;;;3.70;;
62258;SDS011;48241;48.824;10.102;2022-07-29T01:43:19;3.97;;;3.58;;
62258;SDS011;48241;48.824;10.102;2022-07-29T01:45:53;4.57;;;3.80;;
62258;SDS011;48241;48.824;10.102;2022-07-29T01:48:40;4.55;;;4.15;;
62258;SDS011;48241;48.824;10.102;2022-07-29T01:51:07;5.03;;;3.90;;
62258;SDS011;48241;48.824;10.102;2022-07-29T01:53:55;4.13;;;3.72;;
62258;SDS011;48241;48.824;10.102;2022-07-29T01:56:43;4.33;;;3.87;;
62258;SDS011;48241;48.824;10.102;2022-07-29T01:59:12;4.70;;;4.15;;
62258;SDS011;48241;48.824;10.102;2022-07-29T02:01:38;4.72;;;4.25;;
62258;SDS011;48241;48.824;10.102;2022-07-29T02:04:06;4.50;;;4.10;;
62258;SDS011;48241;48.824;10.102;2022-07-29T02:06:34;4.82;;;4.25;;
62258;SDS011;48241;48.824;10.102;2022-07-29T02:09:03;4.55;;;4.15;;
62258;SDS011;48241;48.824;10.102;2022-07-29T02:11:31;4.68;;;4.28;;
62258;SDS011;48241;48.824;10.102;2022-07-29T02:13:59;5.05;;;4.40;;
62258;SDS011;48241;48.824;10.102;2022-07-29T02:16:26;4.85;;;4.45;;
62258;SDS011;48241;48.824;10.102;2022-07-29T02:18:53;4.90;;;4.43;;
62258;SDS011;48241;48.824;10.102;2022-07-29T02:21:23;5.93;;;4.55;;
62258;SDS011;48241;48.824;10.102;2022-07-29T02:23:52;5.77;;;5.13;;
62258;SDS011;48241;48.824;10.102;2022-07-29T02:26:20;5.85;;;5.25;;
62258;SDS011;48241;48.824;10.102;2022-07-29T02:28:49;6.07;;;5.40;;
62258;SDS011;48241;48.824;10.102;2022-07-29T02:31:19;5.57;;;5.07;;
62258;SDS011;48241;48.824;10.102;2022-07-29T02:33:49;5.10;;;4.60;;
62258;SDS011;48241;48.824;10.102;2022-07-29T02:36:16;5.30;;;4.80;;
62258;SDS011;48241;48.824;10.102;2022-07-29T02:38:45;5.38;;;4.88;;
62258;SDS011;48241;48.824;10.102;2022-07-29T02:41:20;4.68;;;4.28;;
62258;SDS011;48241;48.824;10.102;2022-07-29T02:46:21;5.85;;;5.30;;
62258;SDS011;48241;48.824;10.102;2022-07-29T02:49:15;5.72;;;5.22;;
62258;SDS011;48241;48.824;10.102;2022-07-29T02:51:55;5.80;;;5.30;;
62258;SDS011;48241;48.824;10.102;2022-07-29T02:54:34;6.80;;;5.45;;
62258;SDS011;48241;48.824;10.102;2022-07-29T02:57:34;5.65;;;5.15;;
62258;SDS011;48241;48.824;10.102;2022-07-29T03:00:20;5.65;;;5.15;;
62258;SDS011;48241;48.824;10.102;2022-07-29T03:02:49;6.05;;;5.47;;
62258;SDS011;48241;48.824;10.102;2022-07-29T03:05:19;5.25;;;4.75;;
62258;SDS011;48241;48.824;10.102;2022-07-29T03:07:46;5.40;;;4.90;;
62258;SDS011;48241;48.824;10.102;2022-07-29T03:10:22;5.25;;;4.75;;
62258;SDS011;48241;48.824;10.102;2022-07-29T03:12:49;6.47;;;4.95;;
62258;SDS011;48241;48.824;10.102;2022-07-29T03:15:16;5.90;;;4.90;;
62258;SDS011;48241;48.824;10.102;2022-07-29T03:17:43;5.20;;;4.70;;
62258;SDS011;48241;48.824;10.102;2022-07-29T03:20:09;4.90;;;4.40;;
62258;SDS011;48241;48.824;10.102;2022-07-29T03:22:40;5.20;;;4.80;;
62258;SDS011;48241;48.824;10.102;2022-07-29T03:25:13;4.65;;;4.25;;
62258;SDS011;48241;48.824;10.102;2022-07-29T03:27:40;5.07;;;4.57;;
62258;SDS011;48241;48.824;10.102;2022-07-29T03:30:07;5.90;;;4.53;;
62258;SDS011;48241;48.824;10.102;2022-07-29T03:32:34;5.15;;;4.65;;
62258;SDS011;48241;48.824;10.102;2022-07-29T03:35:00;4.80;;;4.40;;
62258;SDS011;48241;48.824;10.102;2022-07-29T03:37:26;4.93;;;4.45;;
62258;SDS011;48241;48.824;10.102;2022-07-29T03:39:52;4.95;;;4.50;;
62258;SDS011;48241;48.824;10.102;2022-07-29T03:42:21;4.78;;;3.88;;
62258;SDS011;48241;48.824;10.102;2022-07-29T03:44:56;4.03;;;3.72;;
62258;SDS011;48241;48.824;10.102;2022-07-29T03:47:25;4.07;;;3.78;;
62258;SDS011;48241;48.824;10.102;2022-07-29T03:49:54;3.97;;;3.67;;
62258;SDS011;48241;48.824;10.102;2022-07-29T03:52:25;5.15;;;3.97;;
62258;SDS011;48241;48.824;10.102;2022-07-29T03:54:51;5.32;;;4.05;;
62258;SDS011;48241;48.824;10.102;2022-07-29T03:57:17;4.90;;;4.40;;
62258;SDS011;48241;48.824;10.102;2022-07-29T03:59:45;4.20;;;3.80;;
62258;SDS011;48241;48.824;10.102;2022-07-29T04:02:11;6.57;;;4.20;;
62258;SDS011;48241;48.824;10.102;2022-07-29T04:04:37;5.80;;;4.75;;
62258;SDS011;48241;48.824;10.102;2022-07-29T04:07:03;4.65;;;4.25;;
62258;SDS011;48241;48.824;10.102;2022-07-29T04:09:29;4.38;;;3.85;;
62258;SDS011;48241;48.824;10.102;2022-07-29T04:11:55;4.50;;;4.10;;
62258;SDS011;48241;48.824;10.102;2022-07-29T04:14:21;4.20;;;3.80;;
62258;SDS011;48241;48.824;10.102;2022-07-29T04:16:46;4.07;;;3.70;;
62258;SDS011;48241;48.824;10.102;2022-07-29T04:19:12;3.80;;;3.50;;
62258;SDS011;48241;48.824;10.102;2022-07-29T04:21:38;3.60;;;3.33;;
62258;SDS011;48241;48.824;10.102;2022-07-29T04:24:05;4.30;;;3.72;;
62258;SDS011;48241;48.824;10.102;2022-07-29T04:26:31;4.03;;;3.60;;
62258;SDS011;48241;48.824;10.102;2022-07-29T04:28:57;4.82;;;3.25;;
62258;SDS011;48241;48.824;10.102;2022-07-29T04:31:22;4.20;;;3.55;;
62258;SDS011;48241;48.824;10.102;2022-07-29T04:33:48;3.88;;;3.58;;
62258;SDS011;48241;48.824;10.102;2022-07-29T04:36:13;4.25;;;3.10;;
62258;SDS011;48241;48.824;10.102;2022-07-29T04:38:39;3.47;;;3.17;;
62258;SDS011;48241;48.824;10.102;2022-07-29T04:41:05;3.90;;;3.45;;
62258;SDS011;48241;48.824;10.102;2022-07-29T04:43:32;3.75;;;3.45;;
62258;SDS011;48241;48.824;10.102;2022-07-29T04:45:58;3.75;;;3.22;;
62258;SDS011;48241;48.824;10.102;2022-07-29T04:48:24;3.55;;;3.20;;
62258;SDS011;48241;48.824;10.102;2022-07-29T04:50:50;3.92;;;3.08;;
62258;SDS011;48241;48.824;10.102;2022-07-29T04:53:16;3.15;;;2.85;;
62258;SDS011;48241;48.824;10.102;2022-07-29T04:55:41;3.08;;;2.80;;
62258;SDS011;48241;48.824;10.102;2022-07-29T04:58:07;3.28;;;2.97;;
62258;SDS011;48241;48.824;10.102;2022-07-29T05:00:33;3.00;;;2.80;;
62258;SDS011;48241;48.824;10.102;2022-07-29T05:02:59;2.70;;;2.50;;
62258;SDS011;48241;48.824;10.102;2022-07-29T05:05:24;2.78;;;2.58;;
62258;SDS011;48241;48.824;10.102;2022-07-29T05:07:50;3.20;;;2.90;;
62258;SDS011;48241;48.824;10.102;2022-07-29T05:10:15;3.92;;;2.80;;
62258;SDS011;48241;48.824;10.102;2022-07-29T05:12:41;3.00;;;2.70;;
62258;SDS011;48241;48.824;10.102;2022-07-29T05:15:06;4.45;;;2.55;;
62258;SDS011;48241;48.824;10.102;2022-07-29T05:17:32;3.50;;;2.78;;
62258;SDS011;48241;48.824;10.102;2022-07-29T05:19:58;4.03;;;3.15;;
62258;SDS011;48241;48.824;10.102;2022-07-29T05:22:24;6.15;;;3.15;;
62258;SDS011;48241;48.824;10.102;2022-07-29T05:24:49;7.32;;;4.30;;
62258;SDS011;48241;48.824;10.102;2022-07-29T05:27:15;4.45;;;3.90;;
62258;SDS011;48241;48.824;10.102;2022-07-29T05:29:41;3.67;;;2.40;;
62258;SDS011;48241;48.824;10.102;2022-07-29T05:32:06;2.55;;;2.20;;
62258;SDS011;48241;48.824;10.102;2022-07-29T05:34:32;4.07;;;2.88;;
62258;SDS011;48241;48.824;10.102;2022-07-29T05:36:57;2.13;;;1.92;;
62258;SDS011;48241;48.824;10.102;2022-07-29T05:39:23;2.20;;;1.95;;
62258;SDS011;48241;48.824;10.102;2022-07-29T05:41:49;2.50;;;2.30;;
62258;SDS011;48241;48.824;10.102;2022-07-29T05:44:14;2.40;;;2.20;;
62258;SDS011;48241;48.824;10.102;2022-07-29T05:46:40;2.95;;;2.58;;
62258;SDS011;48241;48.824;10.102;2022-07-29T05:49:06;2.47;;;2.28;;
62258;SDS011;48241;48.824;10.102;2022-07-29T05:51:35;2.88;;;2.58;;
62258;SDS011;48241;48.824;10.102;2022-07-29T05:54:00;2.83;;;2.42;;
62258;SDS011;48241;48.824;10.102;2022-07-29T05:56:26;3.55;;;3.03;;
62258;SDS011;48241;48.824;10.102;2022-07-29T05:58:52;3.38;;;3.00;;
62258;SDS011;48241;48.824;10.102;2022-07-29T06:01:18;2.95;;;2.65;;
62258;SDS011;48241;48.824;10.102;2022-07-29T06:03:44;4.15;;;2.70;;
62258;SDS011;48241;48.824;10.102;2022-07-29T06:06:10;3.55;;;2.40;;
62258;SDS011;48241;48.824;10.102;2022-07-29T06:08:35;5.60;;;2.80;;
62258;SDS011;48241;48.824;10.102;2022-07-29T06:11:02;5.18;;;2.80;;
62258;SDS011;48241;48.824;10.102;2022-07-29T06:13:28;3.50;;;2.97;;
62258;SDS011;48241;48.824;10.102;2022-07-29T06:15:54;4.78;;;2.88;;
62258;SDS011;48241;48.824;10.102;2022-07-29T06:18:20;3.38;;;2.47;;
62258;SDS011;48241;48.824;10.102;2022-07-29T06:20:48;4.07;;;2.60;;
62258;SDS011;48241;48.824;10.102;2022-07-29T06:23:15;2.90;;;2.55;;
62258;SDS011;48241;48.824;10.102;2022-07-29T06:25:40;5.00;;;2.58;;
62258;SDS011;48241;48.824;10.102;2022-07-29T06:28:06;3.13;;;2.42;;
62258;SDS011;48241;48.824;10.102;2022-07-29T06:30:32;3.22;;;2.38;;
62258;SDS011;48241;48.824;10.102;2022-07-29T06:32:57;3.38;;;2.65;;
62258;SDS011;48241;48.824;10.102;2022-07-29T06:35:23;3.30;;;2.80;;
62258;SDS011;48241;48.824;10.102;2022-07-29T06:37:49;3.03;;;2.70;;
62258;SDS011;48241;48.824;10.102;2022-07-29T06:40:14;3.10;;;2.80;;
62258;SDS011;48241;48.824;10.102;2022-07-29T06:42:58;5.13;;;2.72;;
62258;SDS011;48241;48.824;10.102;2022-07-29T06:45:24;3.60;;;2.58;;
62258;SDS011;48241;48.824;10.102;2022-07-29T06:47:49;3.15;;;2.40;;
62258;SDS011;48241;48.824;10.102;2022-07-29T06:50:15;4.32;;;2.75;;
62258;SDS011;48241;48.824;10.102;2022-07-29T06:52:41;3.75;;;2.55;;
62258;SDS011;48241;48.824;10.102;2022-07-29T06:55:07;2.72;;;2.40;;
62258;SDS011;48241;48.824;10.102;2022-07-29T06:57:33;3.10;;;2.30;;
62258;SDS011;48241;48.824;10.102;2022-07-29T06:59:59;3.28;;;2.58;;
62258;SDS011;48241;48.824;10.102;2022-07-29T07:02:24;3.75;;;3.05;;
62258;SDS011;48241;48.824;10.102;2022-07-29T07:04:50;3.00;;;2.70;;
62258;SDS011;48241;48.824;10.102;2022-07-29T07:07:16;3.80;;;3.00;;
62258;SDS011;48241;48.824;10.102;2022-07-29T07:09:42;5.95;;;3.28;;
62258;SDS011;48241;48.824;10.102;2022-07-29T07:12:07;3.95;;;3.55;;
62258;SDS011;48241;48.824;10.102;2022-07-29T07:14:33;5.07;;;3.90;;
62258;SDS011;48241;48.824;10.102;2022-07-29T07:16:59;6.60;;;3.45;;
62258;SDS011;48241;48.824;10.102;2022-07-29T07:19:25;5.57;;;4.35;;
62258;SDS011;48241;48.824;10.102;2022-07-29T07:21:52;5.78;;;4.60;;
62258;SDS011;48241;48.824;10.102;2022-07-29T07:24:18;7.45;;;4.57;;
62258;SDS011;48241;48.824;10.102;2022-07-29T07:26:44;7.03;;;5.20;;
62258;SDS011;48241;48.824;10.102;2022-07-29T07:29:09;6.47;;;5.28;;
62258;SDS011;48241;48.824;10.102;2022-07-29T07:31:36;6.05;;;4.72;;
62258;SDS011;48241;48.824;10.102;2022-07-29T07:34:02;7.25;;;5.60;;
62258;SDS011;48241;48.824;10.102;2022-07-29T07:36:27;7.82;;;4.90;;
62258;SDS011;48241;48.824;10.102;2022-07-29T07:38:53;5.95;;;4.90;;
62258;SDS011;48241;48.824;10.102;2022-07-29T07:41:19;4.47;;;3.85;;
62258;SDS011;48241;48.824;10.102;2022-07-29T07:43:45;4.72;;;3.58;;
62258;SDS011;48241;48.824;10.102;2022-07-29T07:46:11;5.97;;;3.97;;
62258;SDS011;48241;48.824;10.102;2022-07-29T07:48:37;5.03;;;3.63;;
62258;SDS011;48241;48.824;10.102;2022-07-29T07:51:02;3.88;;;2.42;;
62258;SDS011;48241;48.824;10.102;2022-07-29T07:53:28;3.30;;;2.80;;
62258;SDS011;48241;48.824;10.102;2022-07-29T07:55:54;4.70;;;3.38;;
62258;SDS011;48241;48.824;10.102;2022-07-29T07:58:20;4.72;;;3.35;;
62258;SDS011;48241;48.824;10.102;2022-07-29T08:00:46;3.13;;;2.67;;
62258;SDS011;48241;48.824;10.102;2022-07-29T08:03:12;3.85;;;3.08;;
62258;SDS011;48241;48.824;10.102;2022-07-29T08:05:38;4.38;;;2.88;;
62258;SDS011;48241;48.824;10.102;2022-07-29T08:08:05;3.00;;;2.70;;
62258;SDS011;48241;48.824;10.102;2022-07-29T08:10:31;4.93;;;2.55;;
62258;SDS011;48241;48.824;10.102;2022-07-29T08:13:15;3.10;;;2.58;;
62258;SDS011;48241;48.824;10.102;2022-07-29T08:15:40;4.00;;;2.60;;
62258;SDS011;48241;48.824;10.102;2022-07-29T08:18:07;3.28;;;2.70;;
62258;SDS011;48241;48.824;10.102;2022-07-29T08:20:33;3.78;;;2.45;;
62258;SDS011;48241;48.824;10.102;2022-07-29T08:23:00;3.70;;;2.90;;
62258;SDS011;48241;48.824;10.102;2022-07-29T08:25:27;4.20;;;2.80;;
62258;SDS011;48241;48.824;10.102;2022-07-29T08:27:53;2.83;;;2.60;;
62258;SDS011;48241;48.824;10.102;2022-07-29T08:30:18;4.38;;;2.45;;
62258;SDS011;48241;48.824;10.102;2022-07-29T08:32:44;3.42;;;2.13;;
62258;SDS011;48241;48.824;10.102;2022-07-29T08:35:09;4.82;;;2.22;;
62258;SDS011;48241;48.824;10.102;2022-07-29T08:37:35;4.47;;;2.40;;
62258;SDS011;48241;48.824;10.102;2022-07-29T08:40:01;3.88;;;2.28;;
62258;SDS011;48241;48.824;10.102;2022-07-29T08:42:27;3.08;;;2.45;;
62258;SDS011;48241;48.824;10.102;2022-07-29T08:44:52;2.88;;;2.60;;
62258;SDS011;48241;48.824;10.102;2022-07-29T08:47:19;3.35;;;2.60;;
62258;SDS011;48241;48.824;10.102;2022-07-29T08:49:45;2.90;;;2.70;;
62258;SDS011;48241;48.824;10.102;2022-07-29T08:52:13;3.33;;;2.30;;
62258;SDS011;48241;48.824;10.102;2022-07-29T08:54:40;2.92;;;1.90;;
62258;SDS011;48241;48.824;10.102;2022-07-29T08:57:09;2.20;;;2.00;;
62258;SDS011;48241;48.824;10.102;2022-07-29T08:59:37;3.08;;;2.10;;
62258;SDS011;48241;48.824;10.102;2022-07-29T09:02:05;2.33;;;2.03;;
62258;SDS011;48241;48.824;10.102;2022-07-29T09:04:40;3.88;;;2.40;;
62258;SDS011;48241;48.824;10.102;2022-07-29T09:07:06;2.78;;;2.20;;
62258;SDS011;48241;48.824;10.102;2022-07-29T09:09:33;3.50;;;2.17;;
62258;SDS011;48241;48.824;10.102;2022-07-29T09:11:59;2.58;;;2.25;;
62258;SDS011;48241;48.824;10.102;2022-07-29T09:14:26;3.33;;;2.10;;
62258;SDS011;48241;48.824;10.102;2022-07-29T09:16:53;3.28;;;2.08;;
62258;SDS011;48241;48.824;10.102;2022-07-29T09:19:24;2.03;;;1.92;;
62258;SDS011;48241;48.824;10.102;2022-07-29T09:21:57;3.13;;;2.20;;
62258;SDS011;48241;48.824;10.102;2022-07-29T09:24:45;2.85;;;2.20;;
62258;SDS011;48241;48.824;10.102;2022-07-29T09:27:22;3.85;;;2.50;;
62258;SDS011;48241;48.824;10.102;2022-07-29T09:32:30;3.40;;;2.15;;
62258;SDS011;48241;48.824;10.102;2022-07-29T09:35:16;2.25;;;2.05;;
62258;SDS011;48241;48.824;10.102;2022-07-29T09:37:46;2.88;;;2.40;;
62258;SDS011;48241;48.824;10.102;2022-07-29T09:40:16;2.83;;;2.30;;
62258;SDS011;48241;48.824;10.102;2022-07-29T09:42:45;2.67;;;2.25;;
62258;SDS011;48241;48.824;10.102;2022-07-29T09:45:11;3.85;;;2.40;;
62258;SDS011;48241;48.824;10.102;2022-07-29T09:47:45;3.00;;;2.35;;
62258;SDS011;48241;48.824;10.102;2022-07-29T09:50:13;2.50;;;2.30;;
62258;SDS011;48241;48.824;10.102;2022-07-29T09:52:47;3.83;;;2.38;;
62258;SDS011;48241;48.824;10.102;2022-07-29T09:55:14;4.45;;;2.63;;
62258;SDS011;48241;48.824;10.102;2022-07-29T09:57:40;4.18;;;2.65;;
62258;SDS011;48241;48.824;10.102;2022-07-29T10:00:07;3.40;;;2.50;;
62258;SDS011;48241;48.824;10.102;2022-07-29T10:02:36;3.40;;;2.55;;
62258;SDS011;48241;48.824;10.102;2022-07-29T10:05:04;2.88;;;2.67;;
62258;SDS011;48241;48.824;10.102;2022-07-29T10:07:45;3.83;;;2.75;;
62258;SDS011;48241;48.824;10.102;2022-07-29T10:10:18;3.53;;;2.72;;
62258;SDS011;48241;48.824;10.102;2022-07-29T10:15:30;3.28;;;2.60;;
62258;SDS011;48241;48.824;10.102;2022-07-29T10:17:58;3.17;;;2.60;;
62258;SDS011;48241;48.824;10.102;2022-07-29T10:20:25;4.32;;;2.45;;
62258;SDS011;48241;48.824;10.102;2022-07-29T10:22:52;2.92;;;2.63;;
62258;SDS011;48241;48.824;10.102;2022-07-29T10:25:18;3.47;;;2.60;;
62258;SDS011;48241;48.824;10.102;2022-07-29T10:27:45;3.63;;;2.67;;
62258;SDS011;48241;48.824;10.102;2022-07-29T10:30:12;5.75;;;2.40;;
62258;SDS011;48241;48.824;10.102;2022-07-29T10:35:47;3.65;;;2.53;;
62258;SDS011;48241;48.824;10.102;2022-07-29T10:44:02;6.15;;;3.13;;
62258;SDS011;48241;48.824;10.102;2022-07-29T10:46:38;3.60;;;3.20;;
62258;SDS011;48241;48.824;10.102;2022-07-29T10:49:17;6.35;;;3.38;;
62258;SDS011;48241;48.824;10.102;2022-07-29T10:52:06;4.72;;;3.00;;
62258;SDS011;48241;48.824;10.102;2022-07-29T10:54:47;4.05;;;2.97;;
62258;SDS011;48241;48.824;10.102;2022-07-29T10:59:46;4.32;;;3.03;;
62258;SDS011;48241;48.824;10.102;2022-07-29T11:05:08;3.50;;;3.03;;
62258;SDS011;48241;48.824;10.102;2022-07-29T11:07:37;3.40;;;3.10;;
62258;SDS011;48241;48.824;10.102;2022-07-29T11:23:17;3.85;;;2.67;;
62258;SDS011;48241;48.824;10.102;2022-07-29T11:31:16;3.67;;;2.80;;
62258;SDS011;48241;48.824;10.102;2022-07-29T11:33:44;3.15;;;2.67;;
62258;SDS011;48241;48.824;10.102;2022-07-29T11:36:10;3.67;;;2.70;;
62258;SDS011;48241;48.824;10.102;2022-07-29T11:38:38;5.03;;;3.00;;
62258;SDS011;48241;48.824;10.102;2022-07-29T11:43:52;4.80;;;2.83;;
62258;SDS011;48241;48.824;10.102;2022-07-29T11:49:22;5.45;;;3.10;;
62258;SDS011;48241;48.824;10.102;2022-07-29T11:51:50;6.85;;;3.00;;
62258;SDS011;48241;48.824;10.102;2022-07-29T11:54:33;3.90;;;2.90;;
62258;SDS011;48241;48.824;10.102;2022-07-29T11:57:00;4.85;;;2.78;;
62258;SDS011;48241;48.824;10.102;2022-07-29T11:59:26;3.75;;;3.10;;
62258;SDS011;48241;48.824;10.102;2022-07-29T12:01:55;5.72;;;3.25;;
62258;SDS011;48241;48.824;10.102;2022-07-29T12:04:21;4.05;;;3.10;;
62258;SDS011;48241;48.824;10.102;2022-07-29T12:06:51;4.57;;;3.13;;
62258;SDS011;48241;48.824;10.102;2022-07-29T12:09:18;3.78;;;3.00;;
62258;SDS011;48241;48.824;10.102;2022-07-29T12:11:44;3.00;;;2.70;;
62258;SDS011;48241;48.824;10.102;2022-07-29T12:14:30;4.00;;;2.80;;
62258;SDS011;48241;48.824;10.102;2022-07-29T12:16:57;4.10;;;2.60;;
62258;SDS011;48241;48.824;10.102;2022-07-29T12:19:25;3.03;;;2.50;;
62258;SDS011;48241;48.824;10.102;2022-07-29T12:21:51;2.90;;;2.40;;
62258;SDS011;48241;48.824;10.102;2022-07-29T12:24:23;2.40;;;2.20;;
62258;SDS011;48241;48.824;10.102;2022-07-29T12:26:56;3.28;;;2.25;;
62258;SDS011;48241;48.824;10.102;2022-07-29T12:29:25;2.90;;;2.58;;
62258;SDS011;48241;48.824;10.102;2022-07-29T12:31:54;2.53;;;2.28;;
62258;SDS011;48241;48.824;10.102;2022-07-29T12:34:22;3.83;;;2.10;;
62258;SDS011;48241;48.824;10.102;2022-07-29T12:36:49;3.20;;;2.00;;
62258;SDS011;48241;48.824;10.102;2022-07-29T12:39:16;1.70;;;1.60;;
62258;SDS011;48241;48.824;10.102;2022-07-29T12:41:42;2.33;;;1.70;;
62258;SDS011;48241;48.824;10.102;2022-07-29T12:44:08;2.50;;;1.70;;
62258;SDS011;48241;48.824;10.102;2022-07-29T12:46:33;2.92;;;1.55;;
62258;SDS011;48241;48.824;10.102;2022-07-29T12:48:59;1.85;;;1.45;;
62258;SDS011;48241;48.824;10.102;2022-07-29T12:51:32;4.03;;;1.40;;
62258;SDS011;48241;48.824;10.102;2022-07-29T12:54:09;3.78;;;1.70;;
62258;SDS011;48241;48.824;10.102;2022-07-29T12:56:36;3.22;;;1.30;;
62258;SDS011;48241;48.824;10.102;2022-07-29T12:59:16;1.50;;;1.40;;
62258;SDS011;48241;48.824;10.102;2022-07-29T13:01:44;2.05;;;1.65;;
62258;SDS011;48241;48.824;10.102;2022-07-29T13:04:23;2.03;;;1.70;;
62258;SDS011;48241;48.824;10.102;2022-07-29T13:07:06;3.47;;;1.75;;
62258;SDS011;48241;48.824;10.102;2022-07-29T13:09:36;2.78;;;1.65;;
62258;SDS011;48241;48.824;10.102;2022-07-29T13:12:05;3.15;;;1.80;;
62258;SDS011;48241;48.824;10.102;2022-07-29T13:14:34;2.55;;;2.00;;
62258;SDS011;48241;48.824;10.102;2022-07-29T13:19:35;3.17;;;1.85;;
62258;SDS011;48241;48.824;10.102;2022-07-29T13:22:02;3.80;;;2.00;;
62258;SDS011;48241;48.824;10.102;2022-07-29T13:24:29;1.88;;;1.55;;
62258;SDS011;48241;48.824;10.102;2022-07-29T13:26:55;2.45;;;2.22;;
62258;SDS011;48241;48.824;10.102;2022-07-29T13:29:20;2.85;;;2.20;;
62258;SDS011;48241;48.824;10.102;2022-07-29T13:31:46;4.22;;;2.30;;
62258;SDS011;48241;48.824;10.102;2022-07-29T13:34:11;2.60;;;2.40;;
62258;SDS011;48241;48.824;10.102;2022-07-29T13:36:37;4.63;;;2.40;;
62258;SDS011;48241;48.824;10.102;2022-07-29T13:39:03;2.85;;;2.42;;
62258;SDS011;48241;48.824;10.102;2022-07-29T13:41:28;3.40;;;2.28;;
62258;SDS011;48241;48.824;10.102;2022-07-29T13:43:54;3.45;;;2.50;;
62258;SDS011;48241;48.824;10.102;2022-07-29T13:46:20;3.22;;;2.50;;
62258;SDS011;48241;48.824;10.102;2022-07-29T13:48:46;2.58;;;2.38;;
62258;SDS011;48241;48.824;10.102;2022-07-29T13:51:11;2.88;;;2.53;;
62258;SDS011;48241;48.824;10.102;2022-07-29T13:53:38;2.85;;;2.53;;
62258;SDS011;48241;48.824;10.102;2022-07-29T13:56:03;2.90;;;2.58;;
62258;SDS011;48241;48.824;10.102;2022-07-29T13:58:33;3.17;;;2.88;;
62258;SDS011;48241;48.824;10.102;2022-07-29T14:01:02;3.15;;;2.85;;
62258;SDS011;48241;48.824;10.102;2022-07-29T14:03:28;3.10;;;2.75;;
62258;SDS011;48241;48.824;10.102;2022-07-29T14:05:54;2.95;;;2.70;;
62258;SDS011;48241;48.824;10.102;2022-07-29T14:08:21;3.47;;;2.95;;
62258;SDS011;48241;48.824;10.102;2022-07-29T14:10:46;3.95;;;2.88;;
62258;SDS011;48241;48.824;10.102;2022-07-29T14:13:12;4.10;;;3.10;;
62258;SDS011;48241;48.824;10.102;2022-07-29T14:15:37;3.55;;;3.25;;
62258;SDS011;48241;48.824;10.102;2022-07-29T14:18:03;4.95;;;3.40;;
62258;SDS011;48241;48.824;10.102;2022-07-29T14:20:28;4.78;;;3.28;;
62258;SDS011;48241;48.824;10.102;2022-07-29T14:22:55;6.53;;;5.30;;
62258;SDS011;48241;48.824;10.102;2022-07-29T14:25:21;6.25;;;4.97;;
62258;SDS011;48241;48.824;10.102;2022-07-29T14:27:47;4.13;;;3.45;;
62258;SDS011;48241;48.824;10.102;2022-07-29T14:30:13;4.75;;;3.42;;
62258;SDS011;48241;48.824;10.102;2022-07-29T14:32:38;5.43;;;3.28;;
62258;SDS011;48241;48.824;10.102;2022-07-29T14:35:05;3.10;;;2.80;;
62258;SDS011;48241;48.824;10.102;2022-07-29T14:37:31;3.35;;;3.00;;
62258;SDS011;48241;48.824;10.102;2022-07-29T14:39:56;4.53;;;3.28;;
62258;SDS011;48241;48.824;10.102;2022-07-29T14:42:26;4.18;;;2.88;;
62258;SDS011;48241;48.824;10.102;2022-07-29T14:44:52;5.90;;;3.47;;
62258;SDS011;48241;48.824;10.102;2022-07-29T14:47:17;3.30;;;3.00;;
62258;SDS011;48241;48.824;10.102;2022-07-29T14:49:43;3.50;;;3.20;;
62258;SDS011;48241;48.824;10.102;2022-07-29T14:52:09;4.65;;;3.10;;
62258;SDS011;48241;48.824;10.102;2022-07-29T14:54:34;3.75;;;3.00;;
62258;SDS011;48241;48.824;10.102;2022-07-29T14:57:00;3.53;;;3.20;;
62258;SDS011;48241;48.824;10.102;2022-07-29T14:59:26;3.88;;;3.05;;
62258;SDS011;48241;48.824;10.102;2022-07-29T15:01:51;4.15;;;3.35;;
62258;SDS011;48241;48.824;10.102;2022-07-29T15:04:17;3.90;;;3.10;;
62258;SDS011;48241;48.824;10.102;2022-07-29T15:06:42;7.15;;;3.33;;
62258;SDS011;48241;48.824;10.102;2022-07-29T15:09:08;3.50;;;3.15;;
62258;SDS011;48241;48.824;10.102;2022-07-29T15:11:34;3.33;;;3.03;;
62258;SDS011;48241;48.824;10.102;2022-07-29T15:13:59;2.80;;;2.60;;
62258;SDS011;48241;48.824;10.102;2022-07-29T15:16:25;5.28;;;3.03;;
62258;SDS011;48241;48.824;10.102;2022-07-29T15:18:50;4.25;;;2.63;;
62258;SDS011;48241;48.824;10.102;2022-07-29T15:21:19;5.15;;;2.92;;
62258;SDS011;48241;48.824;10.102;2022-07-29T15:23:44;4.57;;;2.90;;
62258;SDS011;48241;48.824;10.102;2022-07-29T15:26:10;4.60;;;2.83;;
62258;SDS011;48241;48.824;10.102;2022-07-29T15:28:35;2.80;;;2.60;;
62258;SDS011;48241;48.824;10.102;2022-07-29T15:31:01;3.30;;;2.70;;
62258;SDS011;48241;48.824;10.102;2022-07-29T15:33:27;2.75;;;2.22;;
62258;SDS011;48241;48.824;10.102;2022-07-29T15:35:52;4.28;;;2.60;;
62258;SDS011;48241;48.824;10.102;2022-07-29T15:38:18;3.83;;;2.70;;